sensor_id;sensor_type;location;lat;lon;timestamp;P1;durP1;ratioP1;P2;durP2;ratioP2
70067;SDS011;57425;51.616;6.680;2023-06-26T00:00:27;5.13;;;3.50;;
70067;SDS011;57425;51.616;6.680;2023-06-26T00:02:52;4.38;;;3.08;;
70067;SDS011;57425;51.616;6.680;2023-06-26T00:05:18;5.80;;;3.78;;
70067;SDS011;57425;51.616;6.680;2023-06-26T00:07:44;4.90;;;3.28;;
70067;SDS011;57425;51.616;6.680;2023-06-26T00:10:09;6.05;;;3.60;;
70067;SDS011;57425;51.616;6.680;2023-06-26T00:12:35;4.13;;;3.10;;
70067;SDS011;57425;51.616;6.680;2023-06-26T00:15:01;5.97;;;3.40;;
70067;SDS011;57425;51.616;6.680;2023-06-26T00:17:27;9.63;;;3.78;;
70067;SDS011;57425;51.616;6.680;2023-06-26T00:19:52;6.45;;;4.15;;
70067;SDS011;57425;51.616;6.680;2023-06-26T00:22:18;5.55;;;3.50;;
70067;SDS011;57425;51.616;6.680;2023-06-26T00:24:44;7.50;;;3.28;;
70067;SDS011;57425;51.616;6.680;2023-06-26T00:27:10;5.25;;;3.15;;
70067;SDS011;57425;51.616;6.680;2023-06-26T00:29:35;6.97;;;3.22;;
70067;SDS011;57425;51.616;6.680;2023-06-26T00:32:03;5.40;;;3.42;;
70067;SDS011;57425;51.616;6.680;2023-06-26T00:34:29;7.35;;;3.60;;
70067;SDS011;57425;51.616;6.680;2023-06-26T00:36:55;7.40;;;3.40;;
70067;SDS011;57425;51.616;6.680;2023-06-26T00:39:20;5.85;;;3.88;;
70067;SDS011;57425;51.616;6.680;2023-06-26T00:41:46;4.72;;;3.28;;
70067;SDS011;57425;51.616;6.680;2023-06-26T00:44:12;6.43;;;3.72;;
70067;SDS011;57425;51.616;6.680;2023-06-26T00:46:38;7.95;;;3.67;;
70067;SDS011;57425;51.616;6.680;2023-06-26T00:49:03;6.93;;;4.45;;
70067;SDS011;57425;51.616;6.680;2023-06-26T00:51:30;5.95;;;3.05;;
70067;SDS011;57425;51.616;6.680;2023-06-26T00:53:56;9.02;;;3.30;;
70067;SDS011;57425;51.616;6.680;2023-06-26T00:56:22;5.78;;;4.07;;
70067;SDS011;57425;51.616;6.680;2023-06-26T00:58:49;5.30;;;3.88;;
70067;SDS011;57425;51.616;6.680;2023-06-26T01:01:15;6.22;;;3.60;;
70067;SDS011;57425;51.616;6.680;2023-06-26T01:03:47;9.48;;;4.47;;
70067;SDS011;57425;51.616;6.680;2023-06-26T01:06:18;4.82;;;3.67;;
70067;SDS011;57425;51.616;6.680;2023-06-26T01:08:46;6.72;;;3.50;;
70067;SDS011;57425;51.616;6.680;2023-06-26T01:11:12;13.07;;;3.95;;
70067;SDS011;57425;51.616;6.680;2023-06-26T01:13:39;7.55;;;3.33;;
70067;SDS011;57425;51.616;6.680;2023-06-26T01:16:07;6.75;;;3.45;;
70067;SDS011;57425;51.616;6.680;2023-06-26T01:18:34;8.13;;;3.95;;
70067;SDS011;57425;51.616;6.680;2023-06-26T01:21:02;7.15;;;3.83;;
70067;SDS011;57425;51.616;6.680;2023-06-26T01:23:42;9.07;;;4.35;;
70067;SDS011;57425;51.616;6.680;2023-06-26T01:26:24;8.52;;;3.40;;
70067;SDS011;57425;51.616;6.680;2023-06-26T01:28:53;7.28;;;3.90;;
70067;SDS011;57425;51.616;6.680;2023-06-26T01:31:21;11.00;;;4.80;;
70067;SDS011;57425;51.616;6.680;2023-06-26T01:33:47;6.95;;;3.90;;
70067;SDS011;57425;51.616;6.680;2023-06-26T01:36:12;5.70;;;3.75;;
70067;SDS011;57425;51.616;6.680;2023-06-26T01:38:38;8.75;;;4.15;;
70067;SDS011;57425;51.616;6.680;2023-06-26T01:41:04;8.00;;;4.07;;
70067;SDS011;57425;51.616;6.680;2023-06-26T01:49:03;12.52;;;3.55;;
70067;SDS011;57425;51.616;6.680;2023-06-26T01:51:47;7.38;;;3.90;;
70067;SDS011;57425;51.616;6.680;2023-06-26T01:54:28;6.13;;;3.65;;
70067;SDS011;57425;51.616;6.680;2023-06-26T01:56:56;5.80;;;3.47;;
70067;SDS011;57425;51.616;6.680;2023-06-26T01:59:23;11.68;;;3.67;;
70067;SDS011;57425;51.616;6.680;2023-06-26T02:01:52;5.28;;;3.63;;
70067;SDS011;57425;51.616;6.680;2023-06-26T02:04:17;7.68;;;4.70;;
70067;SDS011;57425;51.616;6.680;2023-06-26T02:06:43;6.60;;;3.88;;
70067;SDS011;57425;51.616;6.680;2023-06-26T02:09:08;7.35;;;3.78;;
70067;SDS011;57425;51.616;6.680;2023-06-26T02:11:34;7.20;;;4.10;;
70067;SDS011;57425;51.616;6.680;2023-06-26T02:14:00;6.60;;;3.67;;
70067;SDS011;57425;51.616;6.680;2023-06-26T02:16:25;12.70;;;4.28;;
70067;SDS011;57425;51.616;6.680;2023-06-26T02:18:51;4.85;;;3.30;;
70067;SDS011;57425;51.616;6.680;2023-06-26T02:21:16;5.75;;;3.28;;
70067;SDS011;57425;51.616;6.680;2023-06-26T02:23:42;6.10;;;3.95;;
70067;SDS011;57425;51.616;6.680;2023-06-26T02:26:08;9.43;;;3.40;;
70067;SDS011;57425;51.616;6.680;2023-06-26T02:28:33;6.07;;;3.22;;
70067;SDS011;57425;51.616;6.680;2023-06-26T02:30:59;6.45;;;3.22;;
70067;SDS011;57425;51.616;6.680;2023-06-26T02:33:25;5.80;;;3.42;;
70067;SDS011;57425;51.616;6.680;2023-06-26T02:35:51;5.18;;;3.15;;
70067;SDS011;57425;51.616;6.680;2023-06-26T02:38:17;5.78;;;3.25;;
70067;SDS011;57425;51.616;6.680;2023-06-26T02:40:43;12.55;;;3.55;;
70067;SDS011;57425;51.616;6.680;2023-06-26T02:43:08;5.68;;;3.20;;
70067;SDS011;57425;51.616;6.680;2023-06-26T02:45:34;6.05;;;3.22;;
70067;SDS011;57425;51.616;6.680;2023-06-26T02:48:00;8.52;;;3.40;;
70067;SDS011;57425;51.616;6.680;2023-06-26T02:50:25;7.80;;;3.13;;
70067;SDS011;57425;51.616;6.680;2023-06-26T02:52:51;5.50;;;3.90;;
70067;SDS011;57425;51.616;6.680;2023-06-26T02:55:18;11.63;;;3.72;;
70067;SDS011;57425;51.616;6.680;2023-06-26T02:57:44;11.57;;;3.50;;
70067;SDS011;57425;51.616;6.680;2023-06-26T03:00:10;6.93;;;3.58;;
70067;SDS011;57425;51.616;6.680;2023-06-26T03:02:36;5.72;;;3.47;;
70067;SDS011;57425;51.616;6.680;2023-06-26T03:05:02;5.70;;;3.22;;
70067;SDS011;57425;51.616;6.680;2023-06-26T03:07:29;8.43;;;3.10;;
70067;SDS011;57425;51.616;6.680;2023-06-26T03:09:54;6.70;;;3.97;;
70067;SDS011;57425;51.616;6.680;2023-06-26T03:12:20;7.15;;;3.80;;
70067;SDS011;57425;51.616;6.680;2023-06-26T03:18:08;8.43;;;3.65;;
70067;SDS011;57425;51.616;6.680;2023-06-26T03:20:34;7.43;;;3.40;;
70067;SDS011;57425;51.616;6.680;2023-06-26T03:23:00;5.40;;;3.50;;
70067;SDS011;57425;51.616;6.680;2023-06-26T03:25:25;5.38;;;2.85;;
70067;SDS011;57425;51.616;6.680;2023-06-26T03:27:51;6.57;;;3.58;;
70067;SDS011;57425;51.616;6.680;2023-06-26T03:30:16;4.75;;;3.20;;
70067;SDS011;57425;51.616;6.680;2023-06-26T03:32:42;5.28;;;3.50;;
70067;SDS011;57425;51.616;6.680;2023-06-26T03:35:08;5.70;;;3.42;;
70067;SDS011;57425;51.616;6.680;2023-06-26T03:37:34;7.05;;;4.00;;
70067;SDS011;57425;51.616;6.680;2023-06-26T03:40:00;5.13;;;3.72;;
70067;SDS011;57425;51.616;6.680;2023-06-26T03:42:25;6.88;;;4.28;;
70067;SDS011;57425;51.616;6.680;2023-06-26T03:44:51;8.82;;;3.97;;
70067;SDS011;57425;51.616;6.680;2023-06-26T03:47:16;7.55;;;3.67;;
70067;SDS011;57425;51.616;6.680;2023-06-26T03:49:42;5.85;;;4.00;;
70067;SDS011;57425;51.616;6.680;2023-06-26T03:52:07;6.32;;;4.10;;
70067;SDS011;57425;51.616;6.680;2023-06-26T03:54:33;6.35;;;3.80;;
70067;SDS011;57425;51.616;6.680;2023-06-26T03:56:59;5.72;;;3.80;;
70067;SDS011;57425;51.616;6.680;2023-06-26T03:59:24;8.23;;;3.92;;
70067;SDS011;57425;51.616;6.680;2023-06-26T04:01:50;9.25;;;4.22;;
70067;SDS011;57425;51.616;6.680;2023-06-26T04:04:15;6.53;;;3.58;;
70067;SDS011;57425;51.616;6.680;2023-06-26T04:06:41;7.00;;;3.90;;
70067;SDS011;57425;51.616;6.680;2023-06-26T04:09:06;7.35;;;4.35;;
70067;SDS011;57425;51.616;6.680;2023-06-26T04:11:32;6.82;;;3.60;;
70067;SDS011;57425;51.616;6.680;2023-06-26T04:13:58;6.03;;;3.80;;
70067;SDS011;57425;51.616;6.680;2023-06-26T04:16:23;9.90;;;3.38;;
70067;SDS011;57425;51.616;6.680;2023-06-26T04:18:50;7.20;;;4.03;;
70067;SDS011;57425;51.616;6.680;2023-06-26T04:21:17;7.95;;;4.05;;
70067;SDS011;57425;51.616;6.680;2023-06-26T04:23:43;5.47;;;3.28;;
70067;SDS011;57425;51.616;6.680;2023-06-26T04:26:08;8.68;;;3.53;;
70067;SDS011;57425;51.616;6.680;2023-06-26T04:28:38;5.75;;;3.28;;
70067;SDS011;57425;51.616;6.680;2023-06-26T04:31:03;6.18;;;3.05;;
70067;SDS011;57425;51.616;6.680;2023-06-26T04:33:29;5.47;;;2.58;;
70067;SDS011;57425;51.616;6.680;2023-06-26T04:35:55;8.38;;;3.08;;
70067;SDS011;57425;51.616;6.680;2023-06-26T04:38:20;5.13;;;3.17;;
70067;SDS011;57425;51.616;6.680;2023-06-26T04:40:46;5.18;;;2.83;;
70067;SDS011;57425;51.616;6.680;2023-06-26T04:43:12;6.75;;;3.33;;
70067;SDS011;57425;51.616;6.680;2023-06-26T04:45:38;5.80;;;3.72;;
70067;SDS011;57425;51.616;6.680;2023-06-26T04:48:04;4.10;;;2.63;;
70067;SDS011;57425;51.616;6.680;2023-06-26T04:50:30;4.28;;;2.63;;
70067;SDS011;57425;51.616;6.680;2023-06-26T04:52:56;6.32;;;2.60;;
70067;SDS011;57425;51.616;6.680;2023-06-26T04:55:23;8.00;;;2.92;;
70067;SDS011;57425;51.616;6.680;2023-06-26T04:57:49;10.63;;;3.25;;
70067;SDS011;57425;51.616;6.680;2023-06-26T05:00:15;7.65;;;2.28;;
70067;SDS011;57425;51.616;6.680;2023-06-26T05:02:41;4.70;;;2.53;;
70067;SDS011;57425;51.616;6.680;2023-06-26T05:05:07;7.22;;;3.13;;
70067;SDS011;57425;51.616;6.680;2023-06-26T05:07:33;4.63;;;3.17;;
70067;SDS011;57425;51.616;6.680;2023-06-26T05:09:58;4.57;;;2.45;;
70067;SDS011;57425;51.616;6.680;2023-06-26T05:12:24;10.25;;;3.17;;
70067;SDS011;57425;51.616;6.680;2023-06-26T05:14:50;4.00;;;2.83;;
70067;SDS011;57425;51.616;6.680;2023-06-26T05:17:15;4.82;;;2.17;;
70067;SDS011;57425;51.616;6.680;2023-06-26T05:19:41;5.35;;;2.42;;
70067;SDS011;57425;51.616;6.680;2023-06-26T05:22:07;3.17;;;2.20;;
70067;SDS011;57425;51.616;6.680;2023-06-26T05:24:34;6.03;;;2.65;;
70067;SDS011;57425;51.616;6.680;2023-06-26T05:27:01;6.72;;;2.42;;
70067;SDS011;57425;51.616;6.680;2023-06-26T05:29:27;3.47;;;1.77;;
70067;SDS011;57425;51.616;6.680;2023-06-26T05:31:54;4.15;;;2.25;;
70067;SDS011;57425;51.616;6.680;2023-06-26T05:34:22;6.25;;;2.00;;
70067;SDS011;57425;51.616;6.680;2023-06-26T05:36:50;4.97;;;1.98;;
70067;SDS011;57425;51.616;6.680;2023-06-26T05:39:16;5.88;;;2.22;;
70067;SDS011;57425;51.616;6.680;2023-06-26T05:41:43;4.75;;;2.33;;
70067;SDS011;57425;51.616;6.680;2023-06-26T05:44:09;12.18;;;2.75;;
70067;SDS011;57425;51.616;6.680;2023-06-26T05:46:35;7.00;;;2.55;;
70067;SDS011;57425;51.616;6.680;2023-06-26T05:49:01;4.25;;;2.35;;
70067;SDS011;57425;51.616;6.680;2023-06-26T05:51:27;6.68;;;2.40;;
70067;SDS011;57425;51.616;6.680;2023-06-26T05:53:53;5.95;;;2.33;;
70067;SDS011;57425;51.616;6.680;2023-06-26T05:56:19;8.00;;;2.47;;
70067;SDS011;57425;51.616;6.680;2023-06-26T05:58:45;5.25;;;2.50;;
70067;SDS011;57425;51.616;6.680;2023-06-26T06:01:12;3.53;;;1.65;;
70067;SDS011;57425;51.616;6.680;2023-06-26T06:03:38;5.28;;;2.55;;
70067;SDS011;57425;51.616;6.680;2023-06-26T06:06:04;5.45;;;2.53;;
70067;SDS011;57425;51.616;6.680;2023-06-26T06:08:30;4.15;;;1.90;;
70067;SDS011;57425;51.616;6.680;2023-06-26T06:10:56;5.68;;;2.53;;
70067;SDS011;57425;51.616;6.680;2023-06-26T06:13:21;4.35;;;1.90;;
70067;SDS011;57425;51.616;6.680;2023-06-26T06:15:47;5.30;;;2.22;;
70067;SDS011;57425;51.616;6.680;2023-06-26T06:18:13;4.78;;;2.30;;
70067;SDS011;57425;51.616;6.680;2023-06-26T06:20:38;7.47;;;2.55;;
70067;SDS011;57425;51.616;6.680;2023-06-26T06:23:04;6.32;;;2.28;;
70067;SDS011;57425;51.616;6.680;2023-06-26T06:25:29;8.70;;;2.50;;
70067;SDS011;57425;51.616;6.680;2023-06-26T06:27:55;7.25;;;2.03;;
70067;SDS011;57425;51.616;6.680;2023-06-26T06:30:20;9.93;;;2.50;;
70067;SDS011;57425;51.616;6.680;2023-06-26T06:32:46;11.43;;;1.83;;
70067;SDS011;57425;51.616;6.680;2023-06-26T06:35:15;7.00;;;2.95;;
70067;SDS011;57425;51.616;6.680;2023-06-26T06:37:42;6.85;;;2.28;;
70067;SDS011;57425;51.616;6.680;2023-06-26T06:40:10;6.07;;;1.95;;
70067;SDS011;57425;51.616;6.680;2023-06-26T06:42:36;5.55;;;2.05;;
70067;SDS011;57425;51.616;6.680;2023-06-26T06:45:02;12.40;;;2.33;;
70067;SDS011;57425;51.616;6.680;2023-06-26T06:47:28;7.32;;;2.15;;
70067;SDS011;57425;51.616;6.680;2023-06-26T06:49:54;12.80;;;2.40;;
70067;SDS011;57425;51.616;6.680;2023-06-26T06:52:20;5.75;;;2.20;;
70067;SDS011;57425;51.616;6.680;2023-06-26T06:54:55;7.57;;;2.80;;
70067;SDS011;57425;51.616;6.680;2023-06-26T06:57:23;11.70;;;2.80;;
70067;SDS011;57425;51.616;6.680;2023-06-26T06:59:49;2.63;;;2.08;;
70067;SDS011;57425;51.616;6.680;2023-06-26T07:02:18;6.75;;;2.63;;
70067;SDS011;57425;51.616;6.680;2023-06-26T07:04:44;8.32;;;2.38;;
70067;SDS011;57425;51.616;6.680;2023-06-26T07:07:10;13.38;;;2.20;;
70067;SDS011;57425;51.616;6.680;2023-06-26T07:09:38;9.55;;;2.92;;
70067;SDS011;57425;51.616;6.680;2023-06-26T07:12:04;5.75;;;2.50;;
70067;SDS011;57425;51.616;6.680;2023-06-26T07:14:30;4.57;;;2.38;;
70067;SDS011;57425;51.616;6.680;2023-06-26T07:16:55;4.82;;;2.50;;
70067;SDS011;57425;51.616;6.680;2023-06-26T07:19:21;6.43;;;2.15;;
70067;SDS011;57425;51.616;6.680;2023-06-26T07:21:46;6.45;;;2.17;;
70067;SDS011;57425;51.616;6.680;2023-06-26T07:24:12;6.63;;;2.20;;
70067;SDS011;57425;51.616;6.680;2023-06-26T07:26:38;6.03;;;1.83;;
70067;SDS011;57425;51.616;6.680;2023-06-26T07:29:04;6.95;;;2.33;;
70067;SDS011;57425;51.616;6.680;2023-06-26T07:31:30;8.77;;;2.53;;
70067;SDS011;57425;51.616;6.680;2023-06-26T07:33:55;6.38;;;2.63;;
70067;SDS011;57425;51.616;6.680;2023-06-26T07:36:21;7.13;;;1.95;;
70067;SDS011;57425;51.616;6.680;2023-06-26T07:38:47;4.32;;;1.83;;
70067;SDS011;57425;51.616;6.680;2023-06-26T07:41:13;10.57;;;2.40;;
70067;SDS011;57425;51.616;6.680;2023-06-26T07:43:38;5.97;;;2.10;;
70067;SDS011;57425;51.616;6.680;2023-06-26T07:46:04;9.07;;;2.42;;
70067;SDS011;57425;51.616;6.680;2023-06-26T07:48:30;6.40;;;2.22;;
70067;SDS011;57425;51.616;6.680;2023-06-26T07:50:55;6.22;;;2.58;;
70067;SDS011;57425;51.616;6.680;2023-06-26T07:53:21;8.30;;;2.05;;
70067;SDS011;57425;51.616;6.680;2023-06-26T07:55:46;5.05;;;2.08;;
70067;SDS011;57425;51.616;6.680;2023-06-26T07:58:12;9.02;;;2.70;;
70067;SDS011;57425;51.616;6.680;2023-06-26T08:00:38;11.98;;;2.30;;
70067;SDS011;57425;51.616;6.680;2023-06-26T08:03:03;6.43;;;2.35;;
70067;SDS011;57425;51.616;6.680;2023-06-26T08:05:29;7.30;;;2.20;;
70067;SDS011;57425;51.616;6.680;2023-06-26T08:07:54;8.30;;;2.33;;
70067;SDS011;57425;51.616;6.680;2023-06-26T08:10:20;4.28;;;1.98;;
70067;SDS011;57425;51.616;6.680;2023-06-26T08:12:46;3.47;;;1.90;;
70067;SDS011;57425;51.616;6.680;2023-06-26T08:15:12;6.75;;;1.88;;
70067;SDS011;57425;51.616;6.680;2023-06-26T08:17:38;3.75;;;1.70;;
70067;SDS011;57425;51.616;6.680;2023-06-26T08:20:04;4.97;;;1.92;;
70067;SDS011;57425;51.616;6.680;2023-06-26T08:22:32;6.05;;;1.83;;
70067;SDS011;57425;51.616;6.680;2023-06-26T08:24:58;4.75;;;1.98;;
70067;SDS011;57425;51.616;6.680;2023-06-26T08:27:24;4.75;;;2.03;;
70067;SDS011;57425;51.616;6.680;2023-06-26T08:29:50;5.38;;;1.58;;
70067;SDS011;57425;51.616;6.680;2023-06-26T08:32:15;5.93;;;1.90;;
70067;SDS011;57425;51.616;6.680;2023-06-26T08:34:41;6.90;;;1.80;;
70067;SDS011;57425;51.616;6.680;2023-06-26T08:37:07;5.30;;;2.05;;
70067;SDS011;57425;51.616;6.680;2023-06-26T08:39:34;3.45;;;1.73;;
70067;SDS011;57425;51.616;6.680;2023-06-26T08:42:00;7.30;;;2.35;;
70067;SDS011;57425;51.616;6.680;2023-06-26T08:44:25;4.40;;;2.05;;
70067;SDS011;57425;51.616;6.680;2023-06-26T08:46:51;5.35;;;1.80;;
70067;SDS011;57425;51.616;6.680;2023-06-26T08:49:25;6.38;;;1.42;;
70067;SDS011;57425;51.616;6.680;2023-06-26T08:52:02;7.15;;;2.38;;
70067;SDS011;57425;51.616;6.680;2023-06-26T08:54:39;5.20;;;2.03;;
70067;SDS011;57425;51.616;6.680;2023-06-26T08:59:36;2.60;;;1.25;;
70067;SDS011;57425;51.616;6.680;2023-06-26T09:02:01;1.88;;;1.30;;
70067;SDS011;57425;51.616;6.680;2023-06-26T09:04:27;6.65;;;2.30;;
70067;SDS011;57425;51.616;6.680;2023-06-26T09:06:53;3.83;;;1.75;;
70067;SDS011;57425;51.616;6.680;2023-06-26T09:09:19;1.75;;;1.25;;
70067;SDS011;57425;51.616;6.680;2023-06-26T09:11:45;2.25;;;1.30;;
70067;SDS011;57425;51.616;6.680;2023-06-26T09:14:11;4.03;;;1.83;;
70067;SDS011;57425;51.616;6.680;2023-06-26T09:16:40;3.28;;;1.38;;
70067;SDS011;57425;51.616;6.680;2023-06-26T09:19:11;2.08;;;1.30;;
70067;SDS011;57425;51.616;6.680;2023-06-26T09:21:38;5.28;;;1.65;;
70067;SDS011;57425;51.616;6.680;2023-06-26T09:24:05;8.77;;;1.55;;
70067;SDS011;57425;51.616;6.680;2023-06-26T09:26:32;3.72;;;1.20;;
70067;SDS011;57425;51.616;6.680;2023-06-26T09:28:59;7.13;;;1.83;;
70067;SDS011;57425;51.616;6.680;2023-06-26T09:31:25;3.88;;;1.13;;
70067;SDS011;57425;51.616;6.680;2023-06-26T09:33:51;1.30;;;1.00;;
70067;SDS011;57425;51.616;6.680;2023-06-26T09:36:23;4.17;;;1.50;;
70067;SDS011;57425;51.616;6.680;2023-06-26T09:38:50;3.67;;;1.83;;
70067;SDS011;57425;51.616;6.680;2023-06-26T09:41:16;6.78;;;1.52;;
70067;SDS011;57425;51.616;6.680;2023-06-26T09:43:46;7.70;;;1.50;;
70067;SDS011;57425;51.616;6.680;2023-06-26T09:46:25;4.53;;;1.75;;
70067;SDS011;57425;51.616;6.680;2023-06-26T09:51:38;5.60;;;2.95;;
70067;SDS011;57425;51.616;6.680;2023-06-26T09:54:05;3.45;;;1.60;;
70067;SDS011;57425;51.616;6.680;2023-06-26T09:56:32;3.85;;;2.72;;
70067;SDS011;57425;51.616;6.680;2023-06-26T09:58:59;10.48;;;6.93;;
70067;SDS011;57425;51.616;6.680;2023-06-26T10:01:28;7.72;;;5.68;;
70067;SDS011;57425;51.616;6.680;2023-06-26T10:03:55;3.97;;;1.80;;
70067;SDS011;57425;51.616;6.680;2023-06-26T10:06:24;3.22;;;1.77;;
70067;SDS011;57425;51.616;6.680;2023-06-26T10:09:00;7.22;;;2.10;;
70067;SDS011;57425;51.616;6.680;2023-06-26T10:11:30;6.10;;;2.17;;
70067;SDS011;57425;51.616;6.680;2023-06-26T10:14:03;6.25;;;1.73;;
70067;SDS011;57425;51.616;6.680;2023-06-26T10:16:31;5.78;;;2.17;;
70067;SDS011;57425;51.616;6.680;2023-06-26T10:19:01;5.68;;;1.88;;
70067;SDS011;57425;51.616;6.680;2023-06-26T10:21:29;4.97;;;1.55;;
70067;SDS011;57425;51.616;6.680;2023-06-26T10:23:56;4.90;;;1.80;;
70067;SDS011;57425;51.616;6.680;2023-06-26T10:26:23;2.65;;;1.40;;
70067;SDS011;57425;51.616;6.680;2023-06-26T10:28:51;4.25;;;1.70;;
70067;SDS011;57425;51.616;6.680;2023-06-26T10:31:20;3.25;;;1.05;;
70067;SDS011;57425;51.616;6.680;2023-06-26T10:33:48;3.05;;;1.20;;
70067;SDS011;57425;51.616;6.680;2023-06-26T10:36:18;2.67;;;1.10;;
70067;SDS011;57425;51.616;6.680;2023-06-26T10:41:19;2.65;;;0.90;;
70067;SDS011;57425;51.616;6.680;2023-06-26T10:43:48;2.72;;;1.05;;
70067;SDS011;57425;51.616;6.680;2023-06-26T10:46:15;2.55;;;0.82;;
70067;SDS011;57425;51.616;6.680;2023-06-26T10:48:56;1.65;;;0.82;;
70067;SDS011;57425;51.616;6.680;2023-06-26T10:51:26;2.85;;;1.60;;
70067;SDS011;57425;51.616;6.680;2023-06-26T10:53:56;3.10;;;1.40;;
70067;SDS011;57425;51.616;6.680;2023-06-26T10:56:40;7.25;;;1.08;;
70067;SDS011;57425;51.616;6.680;2023-06-26T11:01:43;1.27;;;1.08;;
70067;SDS011;57425;51.616;6.680;2023-06-26T11:04:11;3.80;;;0.73;;
70067;SDS011;57425;51.616;6.680;2023-06-26T11:06:39;1.17;;;0.90;;
70067;SDS011;57425;51.616;6.680;2023-06-26T11:14:16;1.33;;;0.68;;
70067;SDS011;57425;51.616;6.680;2023-06-26T11:16:45;1.05;;;0.70;;
70067;SDS011;57425;51.616;6.680;2023-06-26T11:19:12;1.27;;;0.90;;
70067;SDS011;57425;51.616;6.680;2023-06-26T11:21:39;3.65;;;0.70;;
70067;SDS011;57425;51.616;6.680;2023-06-26T11:24:08;3.92;;;0.90;;
70067;SDS011;57425;51.616;6.680;2023-06-26T11:26:41;0.75;;;0.63;;
70067;SDS011;57425;51.616;6.680;2023-06-26T11:29:08;1.17;;;0.57;;
70067;SDS011;57425;51.616;6.680;2023-06-26T11:31:35;1.52;;;0.70;;
70067;SDS011;57425;51.616;6.680;2023-06-26T11:34:03;0.40;;;0.40;;
70067;SDS011;57425;51.616;6.680;2023-06-26T11:36:32;1.30;;;0.70;;
70067;SDS011;57425;51.616;6.680;2023-06-26T11:39:02;4.55;;;0.80;;
70067;SDS011;57425;51.616;6.680;2023-06-26T11:41:31;5.07;;;0.60;;
70067;SDS011;57425;51.616;6.680;2023-06-26T11:44:04;0.77;;;0.40;;
70067;SDS011;57425;51.616;6.680;2023-06-26T11:46:31;1.50;;;0.73;;
70067;SDS011;57425;51.616;6.680;2023-06-26T11:48:58;1.10;;;0.70;;
70067;SDS011;57425;51.616;6.680;2023-06-26T11:51:26;1.58;;;0.57;;
70067;SDS011;57425;51.616;6.680;2023-06-26T11:53:52;1.85;;;0.50;;
70067;SDS011;57425;51.616;6.680;2023-06-26T11:56:18;2.92;;;0.75;;
70067;SDS011;57425;51.616;6.680;2023-06-26T11:59:03;4.65;;;0.75;;
70067;SDS011;57425;51.616;6.680;2023-06-26T12:01:33;0.93;;;0.60;;
70067;SDS011;57425;51.616;6.680;2023-06-26T12:04:04;1.33;;;0.50;;
70067;SDS011;57425;51.616;6.680;2023-06-26T12:06:33;4.65;;;0.52;;
70067;SDS011;57425;51.616;6.680;2023-06-26T12:09:02;0.85;;;0.40;;
70067;SDS011;57425;51.616;6.680;2023-06-26T12:11:30;1.55;;;0.65;;
70067;SDS011;57425;51.616;6.680;2023-06-26T12:13:57;1.05;;;0.73;;
70067;SDS011;57425;51.616;6.680;2023-06-26T12:16:23;7.85;;;0.90;;
70067;SDS011;57425;51.616;6.680;2023-06-26T12:18:49;0.75;;;0.60;;
70067;SDS011;57425;51.616;6.680;2023-06-26T12:23:59;1.50;;;0.70;;
70067;SDS011;57425;51.616;6.680;2023-06-26T12:26:25;3.38;;;0.73;;
70067;SDS011;57425;51.616;6.680;2023-06-26T12:28:52;0.55;;;0.40;;
70067;SDS011;57425;51.616;6.680;2023-06-26T12:31:20;1.17;;;0.63;;
70067;SDS011;57425;51.616;6.680;2023-06-26T12:33:47;1.63;;;0.57;;
70067;SDS011;57425;51.616;6.680;2023-06-26T12:36:13;1.17;;;0.52;;
70067;SDS011;57425;51.616;6.680;2023-06-26T12:38:40;1.67;;;0.60;;
70067;SDS011;57425;51.616;6.680;2023-06-26T12:41:11;1.27;;;0.47;;
70067;SDS011;57425;51.616;6.680;2023-06-26T12:43:38;1.80;;;0.63;;
70067;SDS011;57425;51.616;6.680;2023-06-26T12:46:04;2.45;;;0.45;;
70067;SDS011;57425;51.616;6.680;2023-06-26T12:48:43;1.30;;;0.60;;
70067;SDS011;57425;51.616;6.680;2023-06-26T12:51:11;0.90;;;0.57;;
70067;SDS011;57425;51.616;6.680;2023-06-26T12:53:42;6.05;;;1.00;;
70067;SDS011;57425;51.616;6.680;2023-06-26T12:56:08;0.73;;;0.57;;
70067;SDS011;57425;51.616;6.680;2023-06-26T12:58:35;1.40;;;0.40;;
70067;SDS011;57425;51.616;6.680;2023-06-26T13:01:05;1.35;;;0.40;;
70067;SDS011;57425;51.616;6.680;2023-06-26T13:03:42;0.75;;;0.55;;
70067;SDS011;57425;51.616;6.680;2023-06-26T13:06:08;2.55;;;0.70;;
70067;SDS011;57425;51.616;6.680;2023-06-26T13:08:34;0.90;;;0.63;;
70067;SDS011;57425;51.616;6.680;2023-06-26T13:10:59;2.05;;;0.63;;
70067;SDS011;57425;51.616;6.680;2023-06-26T13:13:25;0.68;;;0.60;;
70067;SDS011;57425;51.616;6.680;2023-06-26T13:15:51;0.50;;;0.50;;
70067;SDS011;57425;51.616;6.680;2023-06-26T13:18:17;5.15;;;0.50;;
70067;SDS011;57425;51.616;6.680;2023-06-26T13:20:42;1.23;;;0.50;;
70067;SDS011;57425;51.616;6.680;2023-06-26T13:23:08;2.95;;;0.65;;
70067;SDS011;57425;51.616;6.680;2023-06-26T13:25:33;2.22;;;0.77;;
70067;SDS011;57425;51.616;6.680;2023-06-26T13:27:59;1.02;;;0.45;;
70067;SDS011;57425;51.616;6.680;2023-06-26T13:30:25;1.88;;;0.60;;
70067;SDS011;57425;51.616;6.680;2023-06-26T13:32:50;0.85;;;0.65;;
70067;SDS011;57425;51.616;6.680;2023-06-26T13:35:16;0.85;;;0.50;;
70067;SDS011;57425;51.616;6.680;2023-06-26T13:37:41;1.15;;;0.63;;
70067;SDS011;57425;51.616;6.680;2023-06-26T13:40:08;0.70;;;0.55;;
70067;SDS011;57425;51.616;6.680;2023-06-26T13:42:34;1.33;;;0.55;;
70067;SDS011;57425;51.616;6.680;2023-06-26T13:45:01;3.50;;;0.50;;
70067;SDS011;57425;51.616;6.680;2023-06-26T13:47:28;1.55;;;0.45;;
70067;SDS011;57425;51.616;6.680;2023-06-26T13:49:54;3.72;;;0.75;;
70067;SDS011;57425;51.616;6.680;2023-06-26T13:52:19;0.55;;;0.40;;
70067;SDS011;57425;51.616;6.680;2023-06-26T13:54:45;1.77;;;0.60;;
70067;SDS011;57425;51.616;6.680;2023-06-26T13:57:11;0.65;;;0.65;;
70067;SDS011;57425;51.616;6.680;2023-06-26T13:59:37;1.67;;;0.80;;
70067;SDS011;57425;51.616;6.680;2023-06-26T14:02:07;0.47;;;0.43;;
70067;SDS011;57425;51.616;6.680;2023-06-26T14:04:33;1.50;;;0.80;;
70067;SDS011;57425;51.616;6.680;2023-06-26T14:06:58;3.72;;;0.80;;
70067;SDS011;57425;51.616;6.680;2023-06-26T14:09:24;0.57;;;0.57;;
70067;SDS011;57425;51.616;6.680;2023-06-26T14:11:49;8.90;;;1.00;;
70067;SDS011;57425;51.616;6.680;2023-06-26T14:14:15;0.65;;;0.50;;
70067;SDS011;57425;51.616;6.680;2023-06-26T14:16:41;3.00;;;0.82;;
70067;SDS011;57425;51.616;6.680;2023-06-26T14:19:07;3.30;;;0.68;;
70067;SDS011;57425;51.616;6.680;2023-06-26T14:21:33;2.95;;;0.75;;
70067;SDS011;57425;51.616;6.680;2023-06-26T14:23:59;1.98;;;0.68;;
70067;SDS011;57425;51.616;6.680;2023-06-26T14:26:25;6.28;;;1.10;;
70067;SDS011;57425;51.616;6.680;2023-06-26T14:28:51;2.17;;;0.60;;
70067;SDS011;57425;51.616;6.680;2023-06-26T14:31:16;0.93;;;0.65;;
70067;SDS011;57425;51.616;6.680;2023-06-26T14:33:42;1.42;;;0.60;;
70067;SDS011;57425;51.616;6.680;2023-06-26T14:36:08;1.52;;;0.85;;
70067;SDS011;57425;51.616;6.680;2023-06-26T14:38:33;0.98;;;0.73;;
70067;SDS011;57425;51.616;6.680;2023-06-26T14:40:59;2.28;;;0.70;;
70067;SDS011;57425;51.616;6.680;2023-06-26T14:43:24;1.33;;;0.73;;
70067;SDS011;57425;51.616;6.680;2023-06-26T14:45:50;2.50;;;0.80;;
70067;SDS011;57425;51.616;6.680;2023-06-26T14:48:15;1.33;;;0.93;;
70067;SDS011;57425;51.616;6.680;2023-06-26T14:50:41;1.10;;;0.70;;
70067;SDS011;57425;51.616;6.680;2023-06-26T14:53:07;1.60;;;0.70;;
70067;SDS011;57425;51.616;6.680;2023-06-26T14:55:32;2.40;;;0.55;;
70067;SDS011;57425;51.616;6.680;2023-06-26T14:57:58;0.82;;;0.50;;
70067;SDS011;57425;51.616;6.680;2023-06-26T15:00:23;2.95;;;0.70;;
70067;SDS011;57425;51.616;6.680;2023-06-26T15:02:49;1.85;;;0.80;;
70067;SDS011;57425;51.616;6.680;2023-06-26T15:05:18;6.80;;;1.17;;
70067;SDS011;57425;51.616;6.680;2023-06-26T15:07:44;2.38;;;0.60;;
70067;SDS011;57425;51.616;6.680;2023-06-26T15:10:09;9.52;;;1.10;;
70067;SDS011;57425;51.616;6.680;2023-06-26T15:12:35;5.18;;;0.80;;